sensor_id;sensor_type;location;lat;lon;timestamp;P1;durP1;ratioP1;P2;durP2;ratioP2
52458;SDS011;38372;52.902;6.024;2023-02-28T00:00:13;10.80;;;5.43;;
52458;SDS011;38372;52.902;6.024;2023-02-28T00:02:40;9.02;;;4.97;;
52458;SDS011;38372;52.902;6.024;2023-02-28T00:05:07;9.00;;;4.93;;
52458;SDS011;38372;52.902;6.024;2023-02-28T00:07:35;15.50;;;5.30;;
52458;SDS011;38372;52.902;6.024;2023-02-28T00:10:01;11.02;;;5.13;;
52458;SDS011;38372;52.902;6.024;2023-02-28T00:12:28;11.85;;;4.68;;
52458;SDS011;38372;52.902;6.024;2023-02-28T00:14:54;7.43;;;4.80;;
52458;SDS011;38372;52.902;6.024;2023-02-28T00:17:20;10.98;;;4.78;;
52458;SDS011;38372;52.902;6.024;2023-02-28T00:19:47;12.95;;;4.25;;
52458;SDS011;38372;52.902;6.024;2023-02-28T00:22:14;7.40;;;4.35;;
52458;SDS011;38372;52.902;6.024;2023-02-28T00:24:40;8.93;;;4.68;;
52458;SDS011;38372;52.902;6.024;2023-02-28T00:27:06;11.98;;;5.20;;
52458;SDS011;38372;52.902;6.024;2023-02-28T00:29:32;7.30;;;4.35;;
52458;SDS011;38372;52.902;6.024;2023-02-28T00:31:58;8.88;;;4.18;;
52458;SDS011;38372;52.902;6.024;2023-02-28T00:34:23;11.93;;;4.40;;
52458;SDS011;38372;52.902;6.024;2023-02-28T00:36:49;10.23;;;4.65;;
52458;SDS011;38372;52.902;6.024;2023-02-28T00:39:15;11.63;;;4.60;;
52458;SDS011;38372;52.902;6.024;2023-02-28T00:41:41;6.75;;;3.80;;
52458;SDS011;38372;52.902;6.024;2023-02-28T00:44:07;8.75;;;4.50;;
52458;SDS011;38372;52.902;6.024;2023-02-28T00:46:33;12.50;;;4.45;;
52458;SDS011;38372;52.902;6.024;2023-02-28T00:48:58;10.30;;;4.55;;
52458;SDS011;38372;52.902;6.024;2023-02-28T00:51:24;6.50;;;4.68;;
52458;SDS011;38372;52.902;6.024;2023-02-28T00:53:50;9.55;;;4.30;;
52458;SDS011;38372;52.902;6.024;2023-02-28T00:56:16;9.40;;;3.88;;
52458;SDS011;38372;52.902;6.024;2023-02-28T00:58:41;8.95;;;4.20;;
52458;SDS011;38372;52.902;6.024;2023-02-28T01:01:07;7.53;;;4.50;;
52458;SDS011;38372;52.902;6.024;2023-02-28T01:03:33;10.43;;;5.00;;
52458;SDS011;38372;52.902;6.024;2023-02-28T01:05:59;10.57;;;5.30;;
52458;SDS011;38372;52.902;6.024;2023-02-28T01:08:25;7.38;;;5.25;;
52458;SDS011;38372;52.902;6.024;2023-02-28T01:10:51;8.32;;;4.35;;
52458;SDS011;38372;52.902;6.024;2023-02-28T01:13:17;9.35;;;4.45;;
52458;SDS011;38372;52.902;6.024;2023-02-28T01:15:54;11.40;;;4.80;;
52458;SDS011;38372;52.902;6.024;2023-02-28T01:18:21;8.48;;;4.50;;
52458;SDS011;38372;52.902;6.024;2023-02-28T01:20:47;9.02;;;3.83;;
52458;SDS011;38372;52.902;6.024;2023-02-28T01:23:14;10.77;;;4.45;;
52458;SDS011;38372;52.902;6.024;2023-02-28T01:25:39;10.85;;;4.68;;
52458;SDS011;38372;52.902;6.024;2023-02-28T01:28:05;9.23;;;4.72;;
52458;SDS011;38372;52.902;6.024;2023-02-28T01:30:32;7.15;;;4.43;;
52458;SDS011;38372;52.902;6.024;2023-02-28T01:32:58;8.23;;;4.78;;
52458;SDS011;38372;52.902;6.024;2023-02-28T01:35:24;10.30;;;4.43;;
52458;SDS011;38372;52.902;6.024;2023-02-28T01:37:50;12.85;;;4.53;;
52458;SDS011;38372;52.902;6.024;2023-02-28T01:40:16;11.23;;;4.78;;
52458;SDS011;38372;52.902;6.024;2023-02-28T01:42:41;10.02;;;6.00;;
52458;SDS011;38372;52.902;6.024;2023-02-28T01:47:50;12.55;;;5.30;;
52458;SDS011;38372;52.902;6.024;2023-02-28T01:50:19;11.68;;;5.90;;
52458;SDS011;38372;52.902;6.024;2023-02-28T01:55:15;9.88;;;4.93;;
52458;SDS011;38372;52.902;6.024;2023-02-28T01:57:45;10.13;;;5.70;;
52458;SDS011;38372;52.902;6.024;2023-02-28T02:00:15;10.18;;;5.22;;
52458;SDS011;38372;52.902;6.024;2023-02-28T02:02:45;7.50;;;5.05;;
52458;SDS011;38372;52.902;6.024;2023-02-28T02:05:19;11.63;;;5.13;;
52458;SDS011;38372;52.902;6.024;2023-02-28T02:07:47;10.15;;;5.20;;
52458;SDS011;38372;52.902;6.024;2023-02-28T02:10:17;13.38;;;5.10;;
52458;SDS011;38372;52.902;6.024;2023-02-28T02:15:26;12.57;;;6.10;;
52458;SDS011;38372;52.902;6.024;2023-02-28T02:29:21;10.48;;;5.80;;
52458;SDS011;38372;52.902;6.024;2023-02-28T02:44:03;11.93;;;6.28;;
52458;SDS011;38372;52.902;6.024;2023-02-28T02:46:38;11.63;;;6.22;;
52458;SDS011;38372;52.902;6.024;2023-02-28T02:49:09;11.93;;;6.20;;
52458;SDS011;38372;52.902;6.024;2023-02-28T02:51:40;8.95;;;6.22;;
52458;SDS011;38372;52.902;6.024;2023-02-28T02:54:21;11.98;;;6.00;;
52458;SDS011;38372;52.902;6.024;2023-02-28T02:56:53;10.52;;;6.57;;
52458;SDS011;38372;52.902;6.024;2023-02-28T02:59:26;9.15;;;6.05;;
52458;SDS011;38372;52.902;6.024;2023-02-28T03:02:01;12.02;;;6.20;;
52458;SDS011;38372;52.902;6.024;2023-02-28T03:04:32;12.38;;;6.90;;
52458;SDS011;38372;52.902;6.024;2023-02-28T03:07:02;9.50;;;5.75;;
52458;SDS011;38372;52.902;6.024;2023-02-28T03:09:27;8.27;;;5.70;;
52458;SDS011;38372;52.902;6.024;2023-02-28T03:11:54;15.48;;;6.60;;
52458;SDS011;38372;52.902;6.024;2023-02-28T03:14:33;7.47;;;5.18;;
52458;SDS011;38372;52.902;6.024;2023-02-28T03:17:16;11.57;;;6.60;;
52458;SDS011;38372;52.902;6.024;2023-02-28T03:25:56;10.65;;;6.85;;
52458;SDS011;38372;52.902;6.024;2023-02-28T03:31:21;12.48;;;7.00;;
52458;SDS011;38372;52.902;6.024;2023-02-28T03:36:46;9.82;;;6.97;;
52458;SDS011;38372;52.902;6.024;2023-02-28T03:39:20;13.77;;;7.22;;
52458;SDS011;38372;52.902;6.024;2023-02-28T03:42:12;11.80;;;7.25;;
52458;SDS011;38372;52.902;6.024;2023-02-28T03:44:42;15.13;;;8.10;;
52458;SDS011;38372;52.902;6.024;2023-02-28T03:47:16;19.27;;;7.97;;
52458;SDS011;38372;52.902;6.024;2023-02-28T03:52:19;13.10;;;8.38;;
52458;SDS011;38372;52.902;6.024;2023-02-28T03:54:48;14.18;;;7.95;;
52458;SDS011;38372;52.902;6.024;2023-02-28T03:57:31;17.13;;;7.65;;
52458;SDS011;38372;52.902;6.024;2023-02-28T04:00:05;15.68;;;7.82;;
52458;SDS011;38372;52.902;6.024;2023-02-28T04:02:35;12.52;;;6.65;;
52458;SDS011;38372;52.902;6.024;2023-02-28T04:05:01;15.77;;;7.63;;
52458;SDS011;38372;52.902;6.024;2023-02-28T04:07:31;13.45;;;8.52;;
52458;SDS011;38372;52.902;6.024;2023-02-28T04:09:57;13.57;;;6.85;;
52458;SDS011;38372;52.902;6.024;2023-02-28T04:12:23;16.10;;;6.97;;
52458;SDS011;38372;52.902;6.024;2023-02-28T04:14:49;13.00;;;7.85;;
52458;SDS011;38372;52.902;6.024;2023-02-28T04:17:15;8.93;;;5.70;;
52458;SDS011;38372;52.902;6.024;2023-02-28T04:19:42;12.18;;;6.25;;
52458;SDS011;38372;52.902;6.024;2023-02-28T04:22:08;11.90;;;6.00;;
52458;SDS011;38372;52.902;6.024;2023-02-28T04:24:34;7.78;;;5.22;;
52458;SDS011;38372;52.902;6.024;2023-02-28T04:27:00;9.57;;;5.30;;
52458;SDS011;38372;52.902;6.024;2023-02-28T04:29:27;7.15;;;4.85;;
52458;SDS011;38372;52.902;6.024;2023-02-28T04:31:56;11.10;;;7.45;;
52458;SDS011;38372;52.902;6.024;2023-02-28T04:34:29;8.20;;;5.85;;
52458;SDS011;38372;52.902;6.024;2023-02-28T04:36:56;9.05;;;5.18;;
52458;SDS011;38372;52.902;6.024;2023-02-28T04:39:23;9.35;;;5.45;;
52458;SDS011;38372;52.902;6.024;2023-02-28T04:41:49;8.88;;;4.97;;
52458;SDS011;38372;52.902;6.024;2023-02-28T04:44:15;10.98;;;6.85;;
52458;SDS011;38372;52.902;6.024;2023-02-28T04:46:42;12.50;;;6.03;;
52458;SDS011;38372;52.902;6.024;2023-02-28T04:49:12;13.05;;;7.43;;
52458;SDS011;38372;52.902;6.024;2023-02-28T04:51:38;15.47;;;9.70;;
52458;SDS011;38372;52.902;6.024;2023-02-28T04:54:04;18.23;;;9.32;;
52458;SDS011;38372;52.902;6.024;2023-02-28T04:56:30;14.98;;;8.52;;
52458;SDS011;38372;52.902;6.024;2023-02-28T04:58:56;17.40;;;9.45;;
52458;SDS011;38372;52.902;6.024;2023-02-28T05:01:23;23.27;;;11.18;;
52458;SDS011;38372;52.902;6.024;2023-02-28T05:03:54;19.38;;;9.23;;
52458;SDS011;38372;52.902;6.024;2023-02-28T05:06:22;22.27;;;11.55;;
52458;SDS011;38372;52.902;6.024;2023-02-28T05:08:49;22.13;;;11.05;;
52458;SDS011;38372;52.902;6.024;2023-02-28T05:11:17;17.15;;;11.18;;
52458;SDS011;38372;52.902;6.024;2023-02-28T05:13:58;19.25;;;11.20;;
52458;SDS011;38372;52.902;6.024;2023-02-28T05:16:24;15.68;;;10.38;;
52458;SDS011;38372;52.902;6.024;2023-02-28T05:18:50;19.60;;;10.45;;
52458;SDS011;38372;52.902;6.024;2023-02-28T05:21:26;15.90;;;10.57;;
52458;SDS011;38372;52.902;6.024;2023-02-28T05:23:53;24.85;;;12.48;;
52458;SDS011;38372;52.902;6.024;2023-02-28T05:26:20;19.45;;;11.90;;
52458;SDS011;38372;52.902;6.024;2023-02-28T05:28:46;18.25;;;10.90;;
52458;SDS011;38372;52.902;6.024;2023-02-28T05:31:11;23.83;;;12.35;;
52458;SDS011;38372;52.902;6.024;2023-02-28T05:33:38;27.67;;;13.45;;
52458;SDS011;38372;52.902;6.024;2023-02-28T05:36:04;21.73;;;12.23;;
52458;SDS011;38372;52.902;6.024;2023-02-28T05:38:31;20.55;;;11.93;;
52458;SDS011;38372;52.902;6.024;2023-02-28T05:40:57;24.25;;;13.23;;
52458;SDS011;38372;52.902;6.024;2023-02-28T05:43:23;22.08;;;12.90;;
52458;SDS011;38372;52.902;6.024;2023-02-28T05:45:49;20.75;;;12.07;;
52458;SDS011;38372;52.902;6.024;2023-02-28T05:48:15;26.80;;;13.15;;
52458;SDS011;38372;52.902;6.024;2023-02-28T05:50:41;23.35;;;11.90;;
52458;SDS011;38372;52.902;6.024;2023-02-28T05:53:09;20.60;;;11.52;;
52458;SDS011;38372;52.902;6.024;2023-02-28T05:55:35;25.67;;;13.80;;
52458;SDS011;38372;52.902;6.024;2023-02-28T05:58:02;28.23;;;13.90;;
52458;SDS011;38372;52.902;6.024;2023-02-28T06:00:28;24.27;;;13.88;;
52458;SDS011;38372;52.902;6.024;2023-02-28T06:02:54;26.30;;;15.40;;
52458;SDS011;38372;52.902;6.024;2023-02-28T06:05:23;27.33;;;14.00;;
52458;SDS011;38372;52.902;6.024;2023-02-28T06:07:49;23.83;;;13.52;;
52458;SDS011;38372;52.902;6.024;2023-02-28T06:10:15;23.58;;;13.70;;
52458;SDS011;38372;52.902;6.024;2023-02-28T06:12:41;24.17;;;12.70;;
52458;SDS011;38372;52.902;6.024;2023-02-28T06:15:09;26.17;;;13.32;;
52458;SDS011;38372;52.902;6.024;2023-02-28T06:17:39;24.63;;;13.80;;
52458;SDS011;38372;52.902;6.024;2023-02-28T06:20:06;29.48;;;14.73;;
52458;SDS011;38372;52.902;6.024;2023-02-28T06:22:34;28.20;;;16.00;;
52458;SDS011;38372;52.902;6.024;2023-02-28T06:25:01;28.27;;;15.55;;
52458;SDS011;38372;52.902;6.024;2023-02-28T06:27:26;29.63;;;15.98;;
52458;SDS011;38372;52.902;6.024;2023-02-28T06:29:55;27.10;;;14.40;;
52458;SDS011;38372;52.902;6.024;2023-02-28T06:32:21;28.17;;;17.00;;
52458;SDS011;38372;52.902;6.024;2023-02-28T06:34:47;33.80;;;16.52;;
52458;SDS011;38372;52.902;6.024;2023-02-28T06:37:14;32.40;;;15.55;;
52458;SDS011;38372;52.902;6.024;2023-02-28T06:39:39;30.30;;;15.95;;
52458;SDS011;38372;52.902;6.024;2023-02-28T06:42:05;30.48;;;13.85;;
52458;SDS011;38372;52.902;6.024;2023-02-28T06:44:31;22.35;;;13.93;;
52458;SDS011;38372;52.902;6.024;2023-02-28T06:47:03;26.15;;;11.50;;
52458;SDS011;38372;52.902;6.024;2023-02-28T06:49:32;22.25;;;12.52;;
52458;SDS011;38372;52.902;6.024;2023-02-28T06:51:59;19.98;;;11.85;;
52458;SDS011;38372;52.902;6.024;2023-02-28T06:54:24;26.92;;;14.23;;
52458;SDS011;38372;52.902;6.024;2023-02-28T06:56:50;22.63;;;14.15;;
52458;SDS011;38372;52.902;6.024;2023-02-28T06:59:17;33.22;;;15.48;;
52458;SDS011;38372;52.902;6.024;2023-02-28T07:01:42;30.60;;;15.68;;
52458;SDS011;38372;52.902;6.024;2023-02-28T07:04:08;31.52;;;15.80;;
52458;SDS011;38372;52.902;6.024;2023-02-28T07:06:34;32.78;;;16.90;;
52458;SDS011;38372;52.902;6.024;2023-02-28T07:09:00;24.60;;;13.93;;
52458;SDS011;38372;52.902;6.024;2023-02-28T07:11:27;28.63;;;15.98;;
52458;SDS011;38372;52.902;6.024;2023-02-28T07:13:56;23.65;;;14.63;;
52458;SDS011;38372;52.902;6.024;2023-02-28T07:16:23;24.67;;;15.02;;
52458;SDS011;38372;52.902;6.024;2023-02-28T07:18:51;27.83;;;15.07;;
52458;SDS011;38372;52.902;6.024;2023-02-28T07:21:18;24.15;;;14.40;;
52458;SDS011;38372;52.902;6.024;2023-02-28T07:23:44;27.60;;;14.55;;
52458;SDS011;38372;52.902;6.024;2023-02-28T07:26:11;31.95;;;16.15;;
52458;SDS011;38372;52.902;6.024;2023-02-28T07:28:40;24.97;;;13.93;;
52458;SDS011;38372;52.902;6.024;2023-02-28T07:31:10;25.73;;;14.38;;
52458;SDS011;38372;52.902;6.024;2023-02-28T07:33:37;28.52;;;15.52;;
52458;SDS011;38372;52.902;6.024;2023-02-28T07:36:08;24.00;;;15.52;;
52458;SDS011;38372;52.902;6.024;2023-02-28T07:38:42;30.15;;;17.08;;
52458;SDS011;38372;52.902;6.024;2023-02-28T07:41:13;31.30;;;16.20;;
52458;SDS011;38372;52.902;6.024;2023-02-28T07:43:40;37.08;;;20.25;;
52458;SDS011;38372;52.902;6.024;2023-02-28T07:46:07;30.75;;;17.38;;
52458;SDS011;38372;52.902;6.024;2023-02-28T07:48:34;48.03;;;24.08;;
52458;SDS011;38372;52.902;6.024;2023-02-28T07:51:01;42.10;;;21.65;;
52458;SDS011;38372;52.902;6.024;2023-02-28T07:53:27;49.50;;;25.15;;
52458;SDS011;38372;52.902;6.024;2023-02-28T07:55:57;43.75;;;22.67;;
52458;SDS011;38372;52.902;6.024;2023-02-28T07:58:24;40.67;;;21.65;;
52458;SDS011;38372;52.902;6.024;2023-02-28T08:00:51;36.22;;;19.63;;
52458;SDS011;38372;52.902;6.024;2023-02-28T08:03:18;40.97;;;22.08;;
52458;SDS011;38372;52.902;6.024;2023-02-28T08:05:44;39.25;;;22.65;;
52458;SDS011;38372;52.902;6.024;2023-02-28T08:08:10;40.08;;;20.83;;
52458;SDS011;38372;52.902;6.024;2023-02-28T08:10:36;49.67;;;24.17;;
52458;SDS011;38372;52.902;6.024;2023-02-28T08:13:02;41.47;;;21.17;;
52458;SDS011;38372;52.902;6.024;2023-02-28T08:15:28;45.05;;;24.45;;
52458;SDS011;38372;52.902;6.024;2023-02-28T08:17:53;50.05;;;26.33;;
52458;SDS011;38372;52.902;6.024;2023-02-28T08:20:21;47.13;;;23.85;;
52458;SDS011;38372;52.902;6.024;2023-02-28T08:22:48;43.65;;;23.88;;
52458;SDS011;38372;52.902;6.024;2023-02-28T08:25:14;53.58;;;28.98;;
52458;SDS011;38372;52.902;6.024;2023-02-28T08:27:40;59.13;;;28.50;;
52458;SDS011;38372;52.902;6.024;2023-02-28T08:30:06;46.03;;;26.45;;
52458;SDS011;38372;52.902;6.024;2023-02-28T08:32:33;46.85;;;24.60;;
52458;SDS011;38372;52.902;6.024;2023-02-28T08:34:58;44.55;;;25.30;;
52458;SDS011;38372;52.902;6.024;2023-02-28T08:37:24;45.05;;;24.98;;
52458;SDS011;38372;52.902;6.024;2023-02-28T08:39:51;30.27;;;19.80;;
52458;SDS011;38372;52.902;6.024;2023-02-28T08:42:16;44.03;;;21.70;;
52458;SDS011;38372;52.902;6.024;2023-02-28T08:44:42;32.15;;;20.23;;
52458;SDS011;38372;52.902;6.024;2023-02-28T08:47:08;36.78;;;21.98;;
52458;SDS011;38372;52.902;6.024;2023-02-28T08:49:34;32.95;;;21.08;;
52458;SDS011;38372;52.902;6.024;2023-02-28T08:52:04;29.20;;;17.77;;
52458;SDS011;38372;52.902;6.024;2023-02-28T08:54:31;23.08;;;16.63;;
52458;SDS011;38372;52.902;6.024;2023-02-28T08:57:02;30.48;;;16.35;;
52458;SDS011;38372;52.902;6.024;2023-02-28T08:59:36;27.90;;;17.58;;
52458;SDS011;38372;52.902;6.024;2023-02-28T09:02:10;29.70;;;17.30;;
52458;SDS011;38372;52.902;6.024;2023-02-28T09:04:39;31.88;;;18.92;;
52458;SDS011;38372;52.902;6.024;2023-02-28T09:07:06;23.90;;;15.00;;
52458;SDS011;38372;52.902;6.024;2023-02-28T09:09:32;24.20;;;14.52;;
52458;SDS011;38372;52.902;6.024;2023-02-28T09:11:58;25.33;;;15.68;;
52458;SDS011;38372;52.902;6.024;2023-02-28T09:14:24;24.33;;;15.15;;
52458;SDS011;38372;52.902;6.024;2023-02-28T09:16:49;23.30;;;15.07;;
52458;SDS011;38372;52.902;6.024;2023-02-28T09:19:15;18.85;;;12.90;;
52458;SDS011;38372;52.902;6.024;2023-02-28T09:21:45;23.33;;;13.70;;
52458;SDS011;38372;52.902;6.024;2023-02-28T09:24:10;21.55;;;13.80;;
52458;SDS011;38372;52.902;6.024;2023-02-28T09:26:39;24.50;;;14.90;;
52458;SDS011;38372;52.902;6.024;2023-02-28T09:29:05;20.75;;;14.18;;
52458;SDS011;38372;52.902;6.024;2023-02-28T09:31:31;25.08;;;15.07;;
52458;SDS011;38372;52.902;6.024;2023-02-28T09:33:58;26.70;;;16.45;;
52458;SDS011;38372;52.902;6.024;2023-02-28T09:36:27;37.43;;;20.13;;
52458;SDS011;38372;52.902;6.024;2023-02-28T09:38:55;37.22;;;21.55;;
52458;SDS011;38372;52.902;6.024;2023-02-28T09:41:24;43.00;;;26.42;;
52458;SDS011;38372;52.902;6.024;2023-02-28T09:43:56;45.10;;;25.48;;
52458;SDS011;38372;52.902;6.024;2023-02-28T09:48:53;33.25;;;20.27;;
52458;SDS011;38372;52.902;6.024;2023-02-28T09:53:57;35.88;;;20.50;;
52458;SDS011;38372;52.902;6.024;2023-02-28T09:59:02;45.58;;;23.33;;
52458;SDS011;38372;52.902;6.024;2023-02-28T10:01:57;32.60;;;17.75;;
52458;SDS011;38372;52.902;6.024;2023-02-28T10:07:23;27.17;;;16.65;;
52458;SDS011;38372;52.902;6.024;2023-02-28T10:10:24;28.08;;;17.60;;
52458;SDS011;38372;52.902;6.024;2023-02-28T10:12:59;28.73;;;17.02;;
52458;SDS011;38372;52.902;6.024;2023-02-28T10:15:29;19.65;;;12.88;;
52458;SDS011;38372;52.902;6.024;2023-02-28T10:17:57;20.20;;;11.45;;
52458;SDS011;38372;52.902;6.024;2023-02-28T10:20:29;7.55;;;5.93;;
52458;SDS011;38372;52.902;6.024;2023-02-28T10:23:05;12.45;;;7.53;;
52458;SDS011;38372;52.902;6.024;2023-02-28T10:25:40;11.13;;;8.20;;
52458;SDS011;38372;52.902;6.024;2023-02-28T10:28:16;8.90;;;5.70;;
52458;SDS011;38372;52.902;6.024;2023-02-28T10:30:46;6.38;;;4.22;;
52458;SDS011;38372;52.902;6.024;2023-02-28T10:33:18;6.93;;;3.70;;
52458;SDS011;38372;52.902;6.024;2023-02-28T10:35:56;4.93;;;3.85;;
52458;SDS011;38372;52.902;6.024;2023-02-28T10:38:24;5.10;;;3.75;;
52458;SDS011;38372;52.902;6.024;2023-02-28T10:41:03;5.82;;;3.58;;
52458;SDS011;38372;52.902;6.024;2023-02-28T10:43:33;3.65;;;2.88;;
52458;SDS011;38372;52.902;6.024;2023-02-28T10:48:45;5.15;;;3.72;;
52458;SDS011;38372;52.902;6.024;2023-02-28T10:51:22;6.97;;;3.55;;
52458;SDS011;38372;52.902;6.024;2023-02-28T10:53:50;4.00;;;3.08;;
52458;SDS011;38372;52.902;6.024;2023-02-28T10:56:23;5.97;;;3.15;;
52458;SDS011;38372;52.902;6.024;2023-02-28T11:01:46;5.88;;;3.60;;
52458;SDS011;38372;52.902;6.024;2023-02-28T11:04:18;4.43;;;3.50;;
52458;SDS011;38372;52.902;6.024;2023-02-28T11:09:25;4.75;;;3.20;;
52458;SDS011;38372;52.902;6.024;2023-02-28T11:11:56;6.55;;;4.00;;
52458;SDS011;38372;52.902;6.024;2023-02-28T11:14:27;6.68;;;4.07;;
52458;SDS011;38372;52.902;6.024;2023-02-28T11:16:55;3.78;;;3.33;;
52458;SDS011;38372;52.902;6.024;2023-02-28T11:19:38;5.30;;;3.83;;
52458;SDS011;38372;52.902;6.024;2023-02-28T11:22:09;4.70;;;3.38;;
52458;SDS011;38372;52.902;6.024;2023-02-28T11:24:37;8.10;;;2.88;;
52458;SDS011;38372;52.902;6.024;2023-02-28T11:27:25;4.20;;;2.95;;
52458;SDS011;38372;52.902;6.024;2023-02-28T11:29:51;4.50;;;2.80;;
52458;SDS011;38372;52.902;6.024;2023-02-28T11:32:23;4.28;;;2.53;;
52458;SDS011;38372;52.902;6.024;2023-02-28T11:35:13;5.93;;;3.40;;
52458;SDS011;38372;52.902;6.024;2023-02-28T11:37:42;3.85;;;2.20;;
52458;SDS011;38372;52.902;6.024;2023-02-28T11:40:18;4.72;;;2.42;;
52458;SDS011;38372;52.902;6.024;2023-02-28T11:42:55;4.70;;;2.65;;
52458;SDS011;38372;52.902;6.024;2023-02-28T11:50:51;3.00;;;1.90;;
52458;SDS011;38372;52.902;6.024;2023-02-28T11:53:22;3.83;;;2.05;;
52458;SDS011;38372;52.902;6.024;2023-02-28T12:04:14;3.88;;;2.47;;
52458;SDS011;38372;52.902;6.024;2023-02-28T12:09:34;3.05;;;2.35;;
52458;SDS011;38372;52.902;6.024;2023-02-28T12:18:38;4.30;;;2.55;;
52458;SDS011;38372;52.902;6.024;2023-02-28T12:26:35;4.45;;;2.53;;
52458;SDS011;38372;52.902;6.024;2023-02-28T12:31:46;4.45;;;2.53;;
52458;SDS011;38372;52.902;6.024;2023-02-28T12:34:18;3.60;;;2.40;;
52458;SDS011;38372;52.902;6.024;2023-02-28T12:36:46;4.15;;;2.80;;
52458;SDS011;38372;52.902;6.024;2023-02-28T12:39:23;4.55;;;2.60;;
52458;SDS011;38372;52.902;6.024;2023-02-28T12:42:11;4.25;;;2.88;;
52458;SDS011;38372;52.902;6.024;2023-02-28T12:45:02;4.57;;;2.85;;
52458;SDS011;38372;52.902;6.024;2023-02-28T12:47:35;4.72;;;2.95;;
52458;SDS011;38372;52.902;6.024;2023-02-28T12:50:04;4.40;;;2.95;;
52458;SDS011;38372;52.902;6.024;2023-02-28T12:52:37;4.68;;;3.30;;
52458;SDS011;38372;52.902;6.024;2023-02-28T12:55:35;5.63;;;3.70;;
52458;SDS011;38372;52.902;6.024;2023-02-28T13:09:15;5.55;;;4.15;;
52458;SDS011;38372;52.902;6.024;2023-02-28T13:11:46;5.45;;;4.07;;
52458;SDS011;38372;52.902;6.024;2023-02-28T13:14:24;10.68;;;6.30;;
52458;SDS011;38372;52.902;6.024;2023-02-28T13:19:24;6.47;;;3.80;;
52458;SDS011;38372;52.902;6.024;2023-02-28T13:21:52;5.43;;;3.70;;
52458;SDS011;38372;52.902;6.024;2023-02-28T13:29:34;5.85;;;3.58;;
52458;SDS011;38372;52.902;6.024;2023-02-28T13:34:34;6.03;;;3.53;;
52458;SDS011;38372;52.902;6.024;2023-02-28T13:39:55;5.38;;;3.90;;
52458;SDS011;38372;52.902;6.024;2023-02-28T13:50:29;6.28;;;4.10;;
52458;SDS011;38372;52.902;6.024;2023-02-28T13:53:12;6.70;;;4.53;;
52458;SDS011;38372;52.902;6.024;2023-02-28T14:08:54;8.35;;;4.10;;
52458;SDS011;38372;52.902;6.024;2023-02-28T14:11:32;6.00;;;3.70;;
52458;SDS011;38372;52.902;6.024;2023-02-28T14:13:59;4.40;;;3.75;;
52458;SDS011;38372;52.902;6.024;2023-02-28T14:16:45;5.05;;;3.92;;
52458;SDS011;38372;52.902;6.024;2023-02-28T14:19:24;6.95;;;4.00;;
52458;SDS011;38372;52.902;6.024;2023-02-28T14:30:14;6.28;;;3.85;;
52458;SDS011;38372;52.902;6.024;2023-02-28T14:38:25;7.47;;;4.72;;
52458;SDS011;38372;52.902;6.024;2023-02-28T14:41:23;5.05;;;3.83;;
52458;SDS011;38372;52.902;6.024;2023-02-28T14:44:01;5.47;;;4.20;;
52458;SDS011;38372;52.902;6.024;2023-02-28T14:46:31;5.07;;;4.07;;
52458;SDS011;38372;52.902;6.024;2023-02-28T14:49:06;6.38;;;4.13;;
52458;SDS011;38372;52.902;6.024;2023-02-28T14:51:50;6.88;;;3.97;;
52458;SDS011;38372;52.902;6.024;2023-02-28T14:54:51;6.57;;;4.05;;
52458;SDS011;38372;52.902;6.024;2023-02-28T14:57:24;6.95;;;3.40;;
52458;SDS011;38372;52.902;6.024;2023-02-28T15:00:04;6.10;;;4.22;;
52458;SDS011;38372;52.902;6.024;2023-02-28T15:02:39;5.50;;;4.00;;
52458;SDS011;38372;52.902;6.024;2023-02-28T15:07:41;4.90;;;3.80;;
52458;SDS011;38372;52.902;6.024;2023-02-28T15:10:10;6.18;;;4.10;;
52458;SDS011;38372;52.902;6.024;2023-02-28T15:12:40;6.60;;;3.92;;
52458;SDS011;38372;52.902;6.024;2023-02-28T15:15:16;7.45;;;4.35;;
52458;SDS011;38372;52.902;6.024;2023-02-28T15:17:48;7.40;;;4.28;;
52458;SDS011;38372;52.902;6.024;2023-02-28T15:20:17;4.72;;;3.50;;
52458;SDS011;38372;52.902;6.024;2023-02-28T15:22:44;7.30;;;4.63;;
52458;SDS011;38372;52.902;6.024;2023-02-28T15:25:13;6.28;;;3.70;;
52458;SDS011;38372;52.902;6.024;2023-02-28T15:27:45;8.70;;;5.13;;
52458;SDS011;38372;52.902;6.024;2023-02-28T15:30:15;6.72;;;4.30;;
52458;SDS011;38372;52.902;6.024;2023-02-28T15:33:02;6.63;;;4.78;;
52458;SDS011;38372;52.902;6.024;2023-02-28T15:35:46;8.18;;;4.57;;
52458;SDS011;38372;52.902;6.024;2023-02-28T15:38:14;6.22;;;3.85;;
52458;SDS011;38372;52.902;6.024;2023-02-28T15:40:54;7.88;;;5.57;;
52458;SDS011;38372;52.902;6.024;2023-02-28T15:43:32;10.95;;;5.22;;
52458;SDS011;38372;52.902;6.024;2023-02-28T15:46:06;6.28;;;4.13;;
52458;SDS011;38372;52.902;6.024;2023-02-28T15:48:35;6.45;;;3.97;;
52458;SDS011;38372;52.902;6.024;2023-02-28T15:51:08;8.25;;;5.22;;
52458;SDS011;38372;52.902;6.024;2023-02-28T15:53:45;6.38;;;4.05;;
52458;SDS011;38372;52.902;6.024;2023-02-28T15:59:01;9.52;;;4.97;;
52458;SDS011;38372;52.902;6.024;2023-02-28T16:01:31;7.38;;;4.40;;
52458;SDS011;38372;52.902;6.024;2023-02-28T16:04:00;9.13;;;4.97;;
52458;SDS011;38372;52.902;6.024;2023-02-28T16:09:05;6.38;;;5.18;;
52458;SDS011;38372;52.902;6.024;2023-02-28T16:11:35;6.63;;;4.00;;
52458;SDS011;38372;52.902;6.024;2023-02-28T16:14:07;7.72;;;5.22;;
52458;SDS011;38372;52.902;6.024;2023-02-28T16:16:41;8.50;;;4.85;;
52458;SDS011;38372;52.902;6.024;2023-02-28T16:19:09;6.43;;;4.72;;
52458;SDS011;38372;52.902;6.024;2023-02-28T16:21:35;7.32;;;4.97;;
52458;SDS011;38372;52.902;6.024;2023-02-28T16:24:01;6.95;;;4.85;;
52458;SDS011;38372;52.902;6.024;2023-02-28T16:26:27;7.80;;;4.70;;
52458;SDS011;38372;52.902;6.024;2023-02-28T16:28:55;7.47;;;5.28;;
52458;SDS011;38372;52.902;6.024;2023-02-28T16:31:20;7.38;;;5.18;;
52458;SDS011;38372;52.902;6.024;2023-02-28T16:33:46;6.20;;;4.72;;
52458;SDS011;38372;52.902;6.024;2023-02-28T16:36:17;8.45;;;5.05;;
52458;SDS011;38372;52.902;6.024;2023-02-28T16:38:45;7.78;;;5.38;;
52458;SDS011;38372;52.902;6.024;2023-02-28T16:41:19;9.45;;;6.30;;
52458;SDS011;38372;52.902;6.024;2023-02-28T16:43:50;6.78;;;4.80;;
52458;SDS011;38372;52.902;6.024;2023-02-28T16:46:17;11.65;;;5.47;;
52458;SDS011;38372;52.902;6.024;2023-02-28T16:48:44;10.02;;;5.20;;
52458;SDS011;38372;52.902;6.024;2023-02-28T16:51:11;8.30;;;5.57;;
52458;SDS011;38372;52.902;6.024;2023-02-28T16:53:38;8.50;;;5.57;;
52458;SDS011;38372;52.902;6.024;2023-02-28T16:56:04;8.15;;;5.80;;
52458;SDS011;38372;52.902;6.024;2023-02-28T16:58:32;8.00;;;5.03;;
52458;SDS011;38372;52.902;6.024;2023-02-28T17:01:01;10.70;;;5.85;;
52458;SDS011;38372;52.902;6.024;2023-02-28T17:03:28;10.70;;;5.75;;
52458;SDS011;38372;52.902;6.024;2023-02-28T17:05:55;8.45;;;5.55;;
52458;SDS011;38372;52.902;6.024;2023-02-28T17:08:24;7.00;;;4.93;;
52458;SDS011;38372;52.902;6.024;2023-02-28T17:10:51;7.88;;;5.43;;
52458;SDS011;38372;52.902;6.024;2023-02-28T17:13:19;6.43;;;4.93;;
52458;SDS011;38372;52.902;6.024;2023-02-28T17:15:45;7.95;;;6.15;;
52458;SDS011;38372;52.902;6.024;2023-02-28T17:18:15;10.88;;;6.97;;
52458;SDS011;38372;52.902;6.024;2023-02-28T17:20:49;9.48;;;7.40;;
52458;SDS011;38372;52.902;6.024;2023-02-28T17:23:15;8.35;;;6.10;;
52458;SDS011;38372;52.902;6.024;2023-02-28T17:25:42;8.32;;;6.18;;
52458;SDS011;38372;52.902;6.024;2023-02-28T17:28:20;7.85;;;5.28;;
52458;SDS011;38372;52.902;6.024;2023-02-28T17:30:47;7.28;;;5.32;;
52458;SDS011;38372;52.902;6.024;2023-02-28T17:33:13;7.15;;;5.32;;